Terminal Aerodrome Forecast
Issued by NWS Shreveport, LA

Home | Current Version | Previous Version | Text Only | Print | Product List | Glossary On
Versions: 1 2 3 4 5 6 7 8 9 10 11 12
000
FTUS44 KSHV 270500 RRA
TAFELD
TAF
KELD 270552Z 2706/2806 14007KT P6SM OVC008
     FM270900 14006KT 3SM BR VCSH OVC007
      TEMPO 2709/2713 1 1/2SM -RA BR OVC005
     FM271300 14005KT 3SM -SHRA BR OVC005
     FM271900 32005KT 4SM -TSRA BR OVC010CB
      TEMPO 2721/2723 2SM TSRA BR OVC008CB
     FM280100 35009KT 4SM -RA BR OVC015=

USA.gov is the U.S. government's official web portal to all federal, state and local government web resources and services.